Time;durP1;ratioP1;P1;durP2;ratioP2;P2;SDS_P1;SDS_P2;PMS_P1;PMS_P2;Temp;Humidity;BMP_temperature;BMP_pressure;BME280_temperature;BME280_humidity;BME280_pressure;Samples;Min_cycle;Max_cycle;Signal;HPM_P1;HPM_P2
2021/05/18 00:01:14;;;;;;;1.30;0.80;;;13.10;93.60;;;12.96;88.20;97755.09;5090138;28;20638;-66
2021/05/18 00:03:42;;;;;;;1.70;1.13;;;13.10;93.70;;;12.96;87.03;97759.47;5085069;28;20639;-66
2021/05/18 00:06:10;;;;;;;1.13;0.70;;;13.20;93.60;;;12.95;88.18;97752.59;5085612;28;20661;-66
2021/05/18 00:14:09;;;;;;;1.00;0.70;;;13.20;93.50;;;12.95;87.04;97760.44;5088776;28;20634;-68
2021/05/18 00:16:37;;;;;;;1.90;0.80;;;13.10;93.50;;;12.96;88.43;97757.69;5083881;28;21390;-67
2021/05/18 00:19:07;;;;;;;3.23;0.97;;;13.20;93.70;;;12.96;88.57;97755.09;5085418;28;20635;-66
2021/05/18 00:21:35;;;;;;;1.00;0.77;;;13.20;93.70;;;12.94;88.41;97761.38;5086594;28;20739;-66
2021/05/18 00:24:05;;;;;;;1.00;0.60;;;13.20;94.30;;;12.94;87.60;97766.63;5082037;28;20643;-66
2021/05/18 00:26:34;;;;;;;1.23;0.80;;;13.20;94.10;;;12.94;87.72;97770.06;5080965;28;20631;-66
2021/05/18 00:29:05;;;;;;;1.70;0.87;;;13.20;94.00;;;12.93;87.16;97789.38;5078577;28;20641;-66
2021/05/18 00:31:34;;;;;;;1.53;0.90;;;13.10;93.60;;;12.91;86.65;97779.97;5086157;28;20657;-66
2021/05/18 00:34:03;;;;;;;2.67;0.80;;;13.10;93.30;;;12.92;87.75;97789.50;5081708;28;21202;-66
2021/05/18 00:36:32;;;;;;;2.17;1.30;;;13.10;93.20;;;12.86;86.68;97793.44;5084121;28;20623;-66
2021/05/18 00:39:00;;;;;;;3.13;0.97;;;13.10;92.80;;;12.65;87.36;97790.88;5086867;28;20720;-66
2021/05/18 00:41:29;;;;;;;1.93;0.90;;;12.90;93.20;;;12.56;87.43;97781.16;5080015;28;20648;-67
2021/05/18 00:44:00;;;;;;;5.00;0.80;;;12.80;93.50;;;12.33;88.56;97782.19;5086167;28;20631;-66
2021/05/18 00:46:29;;;;;;;1.20;0.60;;;12.60;94.00;;;12.28;88.56;97784.31;5080882;28;20642;-66
2021/05/18 00:49:03;;;;;;;1.23;0.70;;;12.50;94.40;;;12.23;90.47;97779.47;5079296;28;20635;-66
2021/05/18 00:51:45;;;;;;;1.00;0.70;;;12.50;94.70;;;12.22;89.95;97786.59;5082634;28;21012;-66
2021/05/18 00:54:23;;;;;;;1.33;0.83;;;12.40;94.80;;;12.20;90.99;97784.13;5087719;28;20986;-67
2021/05/18 00:59:41;;;;;;;1.40;0.90;;;12.40;95.10;;;12.22;90.67;97792.66;5104615;28;20636;-66
2021/05/18 01:02:09;;;;;;;1.20;0.73;;;12.40;95.20;;;12.22;91.52;97792.66;5080920;28;21436;-66
2021/05/18 01:04:41;;;;;;;1.10;0.70;;;12.40;95.30;;;12.23;90.64;97803.97;5093147;28;20666;-66
2021/05/18 01:07:09;;;;;;;1.10;0.60;;;12.40;95.50;;;12.24;92.20;97804.66;5081113;28;20638;-66
2021/05/18 01:09:37;;;;;;;1.50;0.80;;;12.40;95.80;;;12.26;90.96;97801.94;5083120;28;20637;-66
2021/05/18 01:12:07;;;;;;;2.57;0.90;;;12.50;96.10;;;12.27;90.99;97803.59;5087437;28;20663;-66
2021/05/18 01:14:36;;;;;;;1.30;0.90;;;12.50;96.10;;;12.28;92.49;97794.78;5083909;28;20643;-66
2021/05/18 01:17:04;;;;;;;1.80;0.83;;;12.50;96.00;;;12.28;90.51;97795.63;5083096;28;20624;-66
2021/05/18 01:19:32;;;;;;;1.83;0.90;;;12.50;95.90;;;12.29;90.89;97799.06;5087388;28;20647;-67
2021/05/18 01:22:03;;;;;;;2.23;0.77;;;12.50;95.70;;;12.31;91.03;97800.63;5082913;28;20688;-66
2021/05/18 01:24:38;;;;;;;2.23;0.90;;;12.50;95.60;;;12.30;91.91;97804.19;5076193;28;20676;-66
2021/05/18 01:27:07;;;;;;;1.23;0.77;;;12.50;95.60;;;12.32;92.04;97804.06;5081346;28;20627;-66
2021/05/18 01:29:36;;;;;;;1.13;0.77;;;12.50;95.90;;;12.31;91.94;97807.63;5083907;28;20631;-66
2021/05/18 01:32:08;;;;;;;1.00;0.60;;;12.50;95.90;;;12.31;91.03;97823.31;5083746;28;20690;-66
2021/05/18 01:34:36;;;;;;;1.47;0.60;;;12.50;95.90;;;12.31;90.43;97805.84;5079537;28;20976;-67
2021/05/18 01:37:06;;;;;;;1.67;0.80;;;12.50;96.00;;;12.31;92.14;97808.47;5084030;28;20631;-66
2021/05/18 01:40:01;;;;;;;1.47;0.93;;;12.50;96.00;;;12.34;91.48;97812.59;5085258;28;20645;-66
2021/05/18 01:42:45;;;;;;;1.37;0.80;;;12.50;95.80;;;12.31;91.48;97813.69;5086236;28;20645;-67
2021/05/18 01:45:18;;;;;;;1.47;0.73;;;12.50;95.50;;;12.31;91.61;97818.94;5085680;28;20631;-67
2021/05/18 01:47:57;;;;;;;1.10;0.80;;;12.50;95.80;;;12.32;91.97;97817.13;5079790;28;20629;-66
2021/05/18 01:50:37;;;;;;;1.03;0.60;;;12.50;96.10;;;12.31;91.60;97820.69;5081435;28;20750;-66
2021/05/18 01:53:08;;;;;;;1.63;0.77;;;12.50;96.20;;;12.30;91.99;97816.44;5075728;28;20623;-66
2021/05/18 01:55:40;;;;;;;2.40;0.80;;;12.50;96.30;;;12.29;92.53;97820.81;5082425;28;20635;-66
2021/05/18 01:58:09;;;;;;;1.00;0.77;;;12.50;96.20;;;12.28;90.96;97819.16;5085631;28;20639;-66
2021/05/18 02:00:59;;;;;;;2.00;1.00;;;12.50;95.90;;;12.26;90.32;97825.47;5080819;28;21000;-66
2021/05/18 02:03:28;;;;;;;1.17;0.60;;;12.50;95.90;;;12.23;90.93;97826.53;5067561;28;20631;-66
2021/05/18 02:06:02;;;;;;;1.50;0.60;;;12.40;95.70;;;12.19;92.35;97824.28;5080432;28;20685;-67
2021/05/18 02:08:45;;;;;;;2.30;1.43;;;12.40;95.80;;;12.06;91.93;97822.78;5087324;28;21171;-66
2021/05/18 02:11:21;;;;;;;1.03;0.77;;;12.30;95.70;;;12.04;91.54;97822.91;5082725;28;20650;-66
2021/05/18 02:13:53;;;;;;;1.47;0.60;;;12.20;95.80;;;11.99;89.95;97822.41;5071300;28;21522;-66
2021/05/18 02:16:31;;;;;;;1.60;0.63;;;12.20;95.80;;;11.96;91.72;97822.63;5086820;28;20645;-66
2021/05/18 02:19:18;;;;;;;0.90;0.60;;;12.10;95.80;;;11.92;91.08;97821.22;5071959;28;21242;-66
2021/05/18 02:24:36;;;;;;;1.00;0.73;;;12.10;96.00;;;11.91;92.58;97822.19;5087871;28;20631;-66
2021/05/18 02:25:12;;;;;;;7.43;0.80;;;12.10;96.10;;;11.97;90.94;97826.09;5092205;28;20669;-66
2021/05/18 02:28:04;;;;;;;1.17;0.70;;;12.20;96.40;;;12.02;90.67;97826.56;5083561;28;22546;-66
2021/05/18 02:30:39;;;;;;;1.17;0.70;;;12.20;96.30;;;12.03;91.71;97833.47;5080422;28;20646;-66
2021/05/18 02:33:09;;;;;;;1.27;0.60;;;12.20;96.20;;;12.03;92.64;97830.84;5079602;28;20649;-66
2021/05/18 02:35:41;;;;;;;1.30;0.83;;;12.20;96.20;;;12.05;91.85;97834.16;5091566;28;21231;-66
2021/05/18 02:38:09;;;;;;;4.30;0.80;;;12.20;96.20;;;12.07;91.67;97842.72;5084633;28;20667;-66
2021/05/18 02:40:43;;;;;;;1.80;0.77;;;12.30;96.60;;;12.07;92.26;97845.31;5089659;28;20669;-66
2021/05/18 02:43:14;;;;;;;1.07;0.70;;;12.30;96.80;;;12.07;91.79;97845.31;5074628;28;21047;-66
2021/05/18 02:45:49;;;;;;;0.87;0.70;;;12.30;96.80;;;12.10;93.62;97842.47;5082224;28;20667;-66
2021/05/18 02:51:19;;;;;;;1.60;0.60;;;12.30;96.60;;;12.12;91.78;97849.25;5059808;28;20655;-66
2021/05/18 02:53:51;;;;;;;1.27;0.70;;;12.30;96.70;;;12.12;92.94;97848.41;5084999;28;20642;-66
2021/05/18 02:56:27;;;;;;;1.60;0.90;;;12.30;96.60;;;12.06;91.99;97843.69;5089094;28;20727;-66
2021/05/18 02:59:00;;;;;;;3.97;0.83;;;12.30;96.50;;;12.06;90.96;97852.34;5088411;28;21425;-67
2021/05/18 03:01:28;;;;;;;1.40;1.03;;;12.30;96.30;;;12.07;92.50;97848.78;5081646;28;20635;-66
2021/05/18 03:03:56;;;;;;;1.40;0.90;;;12.30;96.40;;;12.11;90.89;97846.75;5081383;28;20629;-66
2021/05/18 03:06:25;;;;;;;1.93;0.90;;;12.30;96.50;;;12.14;91.91;97849.13;5081922;28;20680;-66
2021/05/18 03:08:54;;;;;;;1.63;0.80;;;12.30;96.40;;;12.14;92.23;97849.97;5083417;28;20626;-66
2021/05/18 03:11:23;;;;;;;1.13;0.80;;;12.30;96.60;;;12.15;92.13;97842.94;5081671;28;20666;-66
2021/05/18 03:13:52;;;;;;;2.17;1.20;;;12.30;96.70;;;12.12;92.89;97854.47;5079450;28;20748;-66
2021/05/18 03:16:21;;;;;;;2.90;0.90;;;12.40;96.90;;;12.13;92.27;97847.47;5084659;28;20640;-66
2021/05/18 03:18:49;;;;;;;1.30;0.97;;;12.30;97.10;;;12.12;93.82;97849.25;5080195;28;21486;-66
2021/05/18 03:21:17;;;;;;;1.70;1.17;;;12.30;96.70;;;12.15;93.08;97849.00;5080755;28;20631;-66
2021/05/18 03:23:45;;;;;;;1.00;0.80;;;12.30;96.60;;;12.13;92.14;97852.69;5082156;28;21193;-66
2021/05/18 03:26:13;;;;;;;1.00;0.90;;;12.40;96.80;;;12.15;92.08;97853.41;5086505;28;20662;-66
2021/05/18 03:28:42;;;;;;;3.30;1.30;;;12.30;96.80;;;12.15;92.26;97849.00;5081940;28;20684;-66
2021/05/18 03:34:26;;;;;;;2.83;1.30;;;12.30;96.70;;;12.16;92.67;97853.28;5088641;28;20650;-66
2021/05/18 03:36:48;;;;;;;3.30;0.90;;;12.30;96.30;;;12.13;92.55;97850.06;5091072;28;21037;-66
2021/05/18 03:39:16;;;;;;;1.80;1.40;;;12.30;96.40;;;12.12;91.37;97857.09;5081941;28;20635;-66
2021/05/18 03:41:53;;;;;;;2.40;0.90;;;12.30;96.60;;;12.11;93.10;97863.25;5081050;28;21023;-66
2021/05/18 03:44:28;;;;;;;1.40;1.10;;;12.30;96.80;;;12.08;92.19;97853.06;5086107;28;20665;-66
2021/05/18 03:52:29;;;;;;;1.10;0.90;;;12.30;96.90;;;12.10;92.41;97872.03;5088499;28;20654;-66
2021/05/18 03:55:04;;;;;;;2.27;1.30;;;12.30;96.90;;;12.13;92.11;97861.34;5089377;28;20684;-66
2021/05/18 04:03:12;;;;;;;1.43;1.00;;;12.30;97.00;;;12.21;92.04;97868.59;5084117;28;20989;-66
2021/05/18 04:16:52;;;;;;;1.20;0.90;;;12.50;97.10;;;12.32;92.33;97899.03;5085774;28;20631;-66
2021/05/18 04:19:24;;;;;;;2.07;1.00;;;12.50;97.00;;;12.30;92.42;97897.50;5086298;28;20721;-66
2021/05/18 04:22:06;;;;;;;1.20;1.00;;;12.50;97.10;;;12.29;93.84;97890.59;5089704;28;20662;-66
2021/05/18 04:25:14;;;;;;;1.57;1.00;;;12.50;96.90;;;12.32;92.59;97901.63;5084485;28;20674;-66
2021/05/18 04:42:17;;;;;;;1.40;0.83;;;12.50;96.10;;;12.27;90.20;97922.09;5074571;28;20673;-66
2021/05/18 04:53:18;;;;;;;2.30;0.90;;;12.50;96.00;;;12.33;91.95;97934.69;5064671;28;20648;-66
2021/05/18 05:01:23;;;;;;;1.50;0.90;;;12.60;96.30;;;12.40;91.49;97946.34;5082004;28;21204;-66
2021/05/18 05:04:09;;;;;;;1.20;0.90;;;12.60;96.30;;;12.43;91.81;97947.88;5085063;28;20635;-66
2021/05/18 05:06:45;;;;;;;2.80;1.00;;;12.60;96.30;;;12.45;92.73;97946.00;5080040;28;21264;-66
2021/05/18 05:09:24;;;;;;;1.60;1.10;;;12.60;96.40;;;12.50;90.85;97949.06;5088058;28;20625;-66
2021/05/18 05:14:39;;;;;;;2.60;1.40;;;12.70;96.20;;;12.62;90.83;97961.19;5081331;28;21177;-66
2021/05/18 05:17:08;;;;;;;1.60;1.23;;;12.80;96.20;;;12.69;90.93;97961.41;5086506;28;20627;-66
2021/05/18 05:19:36;;;;;;;2.87;1.20;;;12.90;95.80;;;12.73;90.25;97962.84;5082712;28;20694;-66
2021/05/18 05:22:06;;;;;;;1.80;1.17;;;12.90;95.80;;;12.79;89.54;97967.59;5082312;28;20624;-66
2021/05/18 05:24:37;;;;;;;1.50;1.10;;;13.00;95.80;;;12.80;91.09;97968.44;5085872;28;20749;-66
2021/05/18 05:27:05;;;;;;;1.70;1.10;;;13.00;95.90;;;12.77;91.00;97969.50;5085438;28;20644;-66
2021/05/18 05:29:47;;;;;;;1.40;1.23;;;12.90;95.90;;;12.79;90.87;97972.00;5080849;28;20713;-66
2021/05/18 05:32:15;;;;;;;1.70;1.10;;;13.00;96.00;;;12.81;91.38;97964.88;5087846;28;20639;-66
2021/05/18 05:34:44;;;;;;;2.80;1.30;;;13.00;95.90;;;12.85;89.75;97975.00;5087840;28;20635;-66
2021/05/18 05:37:13;;;;;;;1.83;1.40;;;13.00;95.30;;;12.93;88.29;97972.59;5077829;28;20682;-66
2021/05/18 05:39:41;;;;;;;4.50;1.43;;;13.10;95.10;;;13.01;87.55;97970.19;5080588;28;20696;-66
2021/05/18 05:42:09;;;;;;;2.63;1.07;;;13.10;94.70;;;13.07;86.71;97968.88;5077291;28;20966;-66
2021/05/18 05:44:37;;;;;;;1.60;1.10;;;13.20;94.20;;;13.11;87.30;97963.28;5085067;28;20635;-66
2021/05/18 05:47:05;;;;;;;1.50;1.10;;;13.20;94.30;;;13.14;87.77;97968.28;5086334;28;20705;-66
2021/05/18 05:49:33;;;;;;;1.57;1.23;;;13.20;94.70;;;13.13;89.59;97966.59;5077472;28;21268;-66
2021/05/18 05:52:01;;;;;;;1.57;1.13;;;13.30;94.90;;;13.10;88.86;97960.78;5083121;28;20646;-66
2021/05/18 05:54:30;;;;;;;1.63;1.40;;;13.30;94.40;;;13.08;88.43;97962.69;5083394;28;24117;-66
2021/05/18 05:56:58;;;;;;;1.60;1.13;;;13.30;94.60;;;13.05;88.97;97965.53;5084921;28;20731;-66
2021/05/18 05:59:27;;;;;;;2.00;1.47;;;13.20;94.40;;;13.05;88.24;97968.16;5084427;28;20986;-66
2021/05/18 06:01:55;;;;;;;1.50;1.00;;;13.20;94.50;;;12.99;88.24;97963.41;5084664;28;20981;-67
2021/05/18 06:04:23;;;;;;;2.07;1.13;;;13.20;94.60;;;12.95;88.33;97973.31;5079122;28;20636;-67
2021/05/18 06:06:51;;;;;;;2.20;1.20;;;13.10;94.70;;;12.94;89.34;97971.63;5079999;28;21130;-67
2021/05/18 06:09:19;;;;;;;3.03;1.40;;;13.10;94.90;;;12.97;88.99;97966.16;5078686;28;20653;-66
2021/05/18 06:11:54;;;;;;;2.23;1.60;;;13.10;95.20;;;13.04;89.31;97979.59;5081699;28;20659;-66
2021/05/18 06:14:35;;;;;;;2.47;1.30;;;13.20;95.10;;;13.12;88.21;97987.69;5083216;28;20828;-66
2021/05/18 06:17:33;;;;;;;2.53;1.30;;;13.20;95.00;;;13.15;88.29;97988.25;5086091;28;20731;-67
2021/05/18 06:34:21;;;;;;;2.40;1.70;;;12.90;94.60;;;12.51;89.80;98003.03;5079819;28;20972;-66
2021/05/18 06:37:19;;;;;;;5.70;3.67;;;12.70;95.00;;;12.33;91.79;97999.25;5082577;28;20699;-66
2021/05/18 06:43:00;;;;;;;1.60;1.30;;;12.30;96.20;;;12.17;91.44;98011.00;5082127;28;20950;-66
2021/05/18 06:48:19;;;;;;;1.30;1.10;;;12.30;95.70;;;12.19;91.21;98011.69;5078723;28;20683;-66
2021/05/18 06:50:47;;;;;;;2.00;1.37;;;12.30;95.90;;;12.05;89.98;98015.34;5095218;28;20649;-66
2021/05/18 06:53:15;;;;;;;1.63;1.10;;;12.30;95.90;;;12.02;91.48;98020.81;5081944;28;20665;-66
2021/05/18 06:55:45;;;;;;;2.07;1.47;;;12.20;96.10;;;12.09;91.70;98022.03;5082069;28;21149;-66
2021/05/18 06:58:16;;;;;;;1.57;1.30;;;12.20;96.60;;;12.21;92.84;98022.88;5080858;28;20627;-66
2021/05/18 07:00:46;;;;;;;2.33;1.40;;;12.30;96.60;;;12.22;92.03;98033.22;5085288;28;20622;-66
2021/05/18 07:03:33;;;;;;;2.00;1.30;;;12.30;96.50;;;12.23;92.32;98029.66;5089133;28;20661;-66
2021/05/18 07:06:08;;;;;;;2.20;1.40;;;12.30;96.40;;;12.23;91.04;98033.09;5086545;28;20995;-66
2021/05/18 07:11:31;;;;;;;4.60;3.73;;;12.30;96.90;;;12.14;93.06;98026.91;5046678;28;20735;-65
2021/05/18 07:13:59;;;;;;;2.97;2.10;;;12.20;97.30;;;12.17;92.63;98024.88;5085735;28;20717;-66
2021/05/18 07:16:28;;;;;;;1.90;1.63;;;12.20;97.10;;;12.26;93.19;98035.47;5082763;28;21185;-65
2021/05/18 07:18:57;;;;;;;2.00;1.10;;;12.30;97.20;;;12.44;92.49;98036.69;5096637;28;20630;-66
2021/05/18 07:21:25;;;;;;;2.07;1.47;;;12.50;97.50;;;12.56;93.09;98037.53;5103670;28;20642;-65
2021/05/18 07:23:53;;;;;;;2.23;1.60;;;12.60;97.50;;;12.55;92.34;98041.09;5086429;28;20641;-65
2021/05/18 07:26:21;;;;;;;2.47;1.90;;;12.60;97.20;;;12.59;92.80;98043.38;5084607;28;20694;-66
2021/05/18 07:28:49;;;;;;;2.27;1.60;;;12.60;97.20;;;12.65;91.98;98042.91;5086195;28;20641;-66
2021/05/18 07:31:18;;;;;;;1.70;1.50;;;12.70;97.50;;;12.68;92.89;98037.44;5088778;28;21060;-65
2021/05/18 07:33:47;;;;;;;2.37;1.43;;;12.80;97.20;;;12.75;90.98;98038.63;5087864;28;20653;-66
2021/05/18 07:36:15;;;;;;;1.93;1.53;;;12.80;97.00;;;12.75;91.77;98039.44;5085752;28;20630;-65
2021/05/18 07:38:48;;;;;;;1.80;1.53;;;12.80;97.00;;;12.83;92.45;98037.09;5089499;28;21277;-65
2021/05/18 07:41:18;;;;;;;2.33;1.43;;;12.90;97.20;;;12.84;91.05;98038.75;5089862;28;20633;-65
2021/05/18 07:43:46;;;;;;;2.07;1.57;;;12.90;96.60;;;12.75;91.02;98036.84;5085303;28;21161;-65
2021/05/18 07:46:17;;;;;;;2.20;1.57;;;12.80;96.70;;;12.86;91.36;98036.84;5083089;28;20638;-65
2021/05/18 07:49:08;;;;;;;2.27;1.73;;;12.90;97.20;;;12.97;90.38;98038.63;5082560;28;20631;-65
2021/05/18 07:51:50;;;;;;;1.83;1.30;;;13.00;96.60;;;13.17;89.64;98036.13;5079331;28;20650;-65
2021/05/18 07:59:54;;;;;;;2.43;1.60;;;13.30;96.00;;;13.42;89.31;98035.81;5086278;28;20638;-65
2021/05/18 08:05:18;;;;;;;2.67;1.50;;;13.60;96.10;;;13.79;87.65;98035.31;5095731;28;20623;-65
2021/05/18 08:07:52;;;;;;;2.20;1.80;;;13.70;95.50;;;14.12;88.60;98036.03;5082361;28;20673;-65
2021/05/18 08:10:23;;;;;;;2.57;1.93;;;14.00;95.90;;;14.24;87.18;98038.44;5081396;28;20658;-65
2021/05/18 08:12:51;;;;;;;2.20;2.00;;;14.20;95.20;;;14.25;86.79;98040.13;5086156;28;21185;-65
2021/05/18 08:15:33;;;;;;;4.77;2.07;;;14.30;94.40;;;14.19;86.57;98035.38;5081713;28;21460;-66
2021/05/18 08:18:11;;;;;;;4.23;2.10;;;14.20;93.90;;;14.25;85.84;98031.41;5085787;28;20638;-66
2021/05/18 08:20:57;;;;;;;6.80;4.30;;;14.30;93.70;;;14.39;85.19;98025.84;5083952;28;20687;-66
2021/05/18 10:35:49;;;;;;;2.23;1.53;;;16.20;86.90;;;16.50;79.67;97945.00;5094030;28;20632;-66
2021/05/18 10:38:24;;;;;;;4.17;2.00;;;16.30;88.40;;;16.72;82.22;97949.91;5087929;28;20650;-66
2021/05/18 10:40:53;;;;;;;2.63;1.80;;;16.50;90.90;;;16.98;78.29;97956.16;5106809;28;20689;-66
2021/05/18 10:43:27;;;;;;;3.60;1.70;;;16.80;89.60;;;17.14;79.80;97951.09;5088401;28;20622;-66
2021/05/18 10:46:25;;;;;;;1.67;1.17;;;16.90;90.20;;;17.38;80.57;97954.84;5084460;28;20681;-66
2021/05/18 10:49:08;;;;;;;3.43;1.47;;;17.20;91.20;;;17.50;78.17;97953.63;5094997;28;20639;-66
2021/05/18 10:51:59;;;;;;;2.20;1.10;;;17.30;88.90;;;17.63;75.54;97954.88;5090969;28;21185;-66
2021/05/18 10:54:37;;;;;;;5.03;1.20;;;17.50;84.80;;;17.64;72.45;97951.28;5099679;28;20658;-66
2021/05/18 10:57:21;;;;;;;2.30;1.10;;;17.60;80.50;;;17.76;72.84;97955.34;5088306;28;20657;-66
2021/05/18 10:59:59;;;;;;;2.80;1.10;;;17.70;80.60;;;17.81;71.77;97949.63;5095499;28;20633;-66
2021/05/18 11:02:32;;;;;;;2.90;1.13;;;17.70;77.20;;;17.84;72.00;97946.66;5091211;28;20693;-66
2021/05/18 11:05:04;;;;;;;1.90;1.10;;;17.80;77.70;;;17.98;72.50;97949.56;5094316;28;20691;-66
2021/05/18 11:07:36;;;;;;;2.90;1.30;;;17.90;78.70;;;17.76;69.95;97938.69;5083573;28;20699;-66
2021/05/18 11:10:08;;;;;;;2.97;1.20;;;17.60;74.60;;;17.91;71.57;97939.81;5086587;28;20642;-66
2021/05/18 11:12:36;;;;;;;3.90;1.50;;;17.80;77.30;;;18.32;69.67;97934.69;5088566;28;21602;-66
2021/05/18 11:15:09;;;;;;;3.10;0.93;;;18.10;75.90;;;18.56;69.87;97933.00;5088657;28;20664;-66
2021/05/18 11:17:41;;;;;;;3.13;1.23;;;18.30;76.40;;;18.72;68.82;97927.78;5084869;28;20627;-66
2021/05/18 11:20:14;;;;;;;2.50;1.07;;;18.50;74.50;;;18.71;70.13;97931.41;5100926;28;20638;-66
2021/05/18 11:25:51;;;;;;;3.73;1.60;;;18.60;74.20;;;18.64;67.13;97920.66;5097571;28;20667;-66
2021/05/18 11:28:24;;;;;;;3.60;1.70;;;18.60;71.80;;;18.75;66.19;97915.09;5095109;28;20632;-67
2021/05/18 11:30:55;;;;;;;2.40;1.20;;;18.70;71.10;;;18.94;68.77;97912.16;5090672;28;20947;-66
2021/05/18 11:33:31;;;;;;;2.80;1.17;;;18.70;72.80;;;18.77;68.52;97913.09;5092048;28;21251;-67
2021/05/18 11:36:07;;;;;;;1.93;1.00;;;18.70;72.90;;;18.50;67.38;97908.03;5094078;28;20630;-66
2021/05/18 11:38:37;;;;;;;2.90;1.10;;;18.50;70.10;;;18.32;68.03;97908.28;5093700;28;20757;-66
2021/05/18 11:41:07;;;;;;;1.87;1.00;;;18.30;70.70;;;18.18;67.58;97914.13;5095716;28;20611;-66
2021/05/18 11:43:37;;;;;;;1.80;0.90;;;18.20;70.50;;;18.05;67.96;97909.22;5093226;28;20657;-66
2021/05/18 11:46:09;;;;;;;3.33;1.30;;;18.20;70.30;;;17.99;66.43;97909.00;5090421;28;20721;-68
2021/05/18 11:48:40;;;;;;;9.93;1.93;;;18.10;68.50;;;17.87;66.49;97910.25;5094109;28;21239;-66
2021/05/18 11:51:12;;;;;;;3.73;1.10;;;18.00;68.10;;;17.97;66.11;97909.16;5091632;28;21055;-66
2021/05/18 11:53:43;;;;;;;4.10;1.27;;;18.00;68.40;;;18.32;68.55;97898.53;5095386;28;20659;-66
2021/05/18 11:56:28;;;;;;;2.90;1.30;;;18.20;71.40;;;18.51;67.00;97895.66;5096809;28;20705;-66
2021/05/18 11:59:03;;;;;;;1.70;1.20;;;18.40;70.70;;;18.58;65.29;97886.09;5100272;28;20631;-66
2021/05/18 12:01:35;;;;;;;2.53;1.00;;;18.50;68.50;;;18.56;64.00;97878.34;5092263;28;20615;-66
2021/05/18 12:04:06;;;;;;;2.20;1.37;;;18.50;66.00;;;18.53;64.98;97878.66;5090183;28;20624;-66
2021/05/18 12:06:39;;;;;;;2.23;1.10;;;18.50;66.30;;;18.64;66.20;97873.09;5091189;28;20672;-68
2021/05/18 12:09:10;;;;;;;2.70;1.10;;;18.60;68.40;;;18.49;65.69;97872.03;5090286;28;20738;-68
2021/05/18 12:11:39;;;;;;;2.57;1.13;;;18.60;68.10;;;18.27;64.92;97870.94;5092971;28;20636;-67
2021/05/18 12:14:12;;;;;;;5.73;1.27;;;18.50;65.60;;;17.92;65.68;97880.75;5094581;28;20648;-67
2021/05/18 12:16:42;;;;;;;4.13;1.23;;;18.10;66.10;;;17.46;69.75;97896.06;5095307;28;20712;-66
2021/05/18 12:19:13;;;;;;;1.90;0.90;;;17.80;71.50;;;17.03;70.52;97890.66;5090904;28;21169;-66
2021/05/18 12:21:44;;;;;;;2.90;1.30;;;17.40;71.30;;;16.87;71.16;97884.38;5096437;28;20984;-66
2021/05/18 12:24:15;;;;;;;2.40;1.30;;;17.10;72.80;;;16.96;71.80;97879.06;5100324;28;20990;-66
2021/05/18 12:26:54;;;;;;;2.10;1.13;;;17.10;74.30;;;17.27;72.46;97873.28;5098423;28;20641;-66
2021/05/18 12:29:34;;;;;;;4.00;1.67;;;17.30;77.00;;;17.28;77.78;97869.69;5091229;28;20644;-66
2021/05/18 12:32:23;;;;;;;2.03;1.30;;;17.20;82.00;;;17.48;81.33;97869.41;5091521;28;20637;-66
2021/05/18 12:34:54;;;;;;;3.20;1.20;;;17.40;89.40;;;17.57;78.94;97875.53;5085970;28;21340;-66
2021/05/18 12:37:33;;;;;;;3.97;0.80;;;17.40;86.80;;;17.51;70.49;97860.31;5089958;28;20640;-66
2021/05/18 12:40:06;;;;;;;1.10;0.50;;;17.50;76.30;;;17.50;72.49;97856.88;5094403;28;20642;-67
2021/05/18 12:42:35;;;;;;;2.23;0.80;;;17.50;75.90;;;17.54;69.17;97860.84;5088108;28;20661;-67
2021/05/18 12:45:07;;;;;;;1.57;0.67;;;17.50;74.40;;;17.59;72.58;97842.75;5092324;28;20622;-66
2021/05/18 12:47:39;;;;;;;1.03;0.53;;;17.60;77.70;;;17.40;68.25;97849.22;5093312;28;20628;-66
2021/05/18 12:50:10;;;;;;;2.50;1.40;;;17.30;72.10;;;17.34;67.73;97842.72;5092761;28;20650;-66
2021/05/18 12:52:40;;;;;;;1.27;0.77;;;17.30;70.20;;;17.32;64.63;97859.66;5090543;28;20646;-68
2021/05/18 12:55:23;;;;;;;2.20;1.00;;;17.30;67.40;;;17.23;62.39;97836.84;5092544;27;20665;-68
2021/05/18 12:57:55;;;;;;;2.17;1.20;;;17.20;64.70;;;17.06;67.48;97842.91;5089364;28;20634;-67
2021/05/18 13:00:27;;;;;;;2.38;0.82;;;17.00;67.40;;;17.07;66.07;97836.69;5087604;28;20803;-67
2021/05/18 13:03:07;;;;;;;2.60;1.00;;;17.00;67.70;;;17.42;67.15;97841.97;5089228;28;20242;-68
2021/05/18 13:05:36;;;;;;;1.93;0.90;;;17.30;69.30;;;17.70;65.07;97850.41;5085956;28;20675;-68
2021/05/18 13:08:09;;;;;;;2.17;0.80;;;17.60;68.00;;;17.76;66.44;97847.16;5087996;28;20650;-68
2021/05/18 13:10:50;;;;;;;3.10;1.00;;;17.70;67.90;;;17.77;63.07;97840.91;5090237;28;21302;-68
2021/05/18 13:13:21;;;;;;;2.00;1.00;;;17.80;65.30;;;17.89;62.83;97834.41;5088341;28;20626;-68
2021/05/18 13:15:49;;;;;;;1.90;0.80;;;17.90;63.40;;;18.00;63.07;97829.66;5084290;28;20682;-68
2021/05/18 13:18:18;;;;;;;3.50;1.13;;;18.00;64.10;;;18.13;66.21;97838.03;5084462;28;20637;-68
2021/05/18 13:20:54;;;;;;;5.47;1.23;;;18.10;67.20;;;18.45;65.39;97840.81;5090003;28;21067;-68
2021/05/18 13:23:33;;;;;;;2.07;1.00;;;18.40;67.40;;;18.53;63.97;97840.84;5091254;28;20637;-68
2021/05/18 13:28:48;;;;;;;5.33;1.43;;;18.50;65.20;;;18.39;63.17;97841.47;5089274;28;20719;-68
2021/05/18 13:31:16;;;;;;;6.10;0.90;;;18.50;63.20;;;18.33;63.25;97843.88;5088516;28;20700;-68
2021/05/18 13:33:45;;;;;;;2.37;0.80;;;18.40;63.70;;;18.21;64.96;97840.72;5088182;28;20718;-68
2021/05/18 13:36:13;;;;;;;2.20;0.77;;;18.30;64.80;;;18.09;61.93;97835.84;5086996;28;21241;-68
2021/05/18 13:38:41;;;;;;;2.33;1.00;;;18.20;61.30;;;17.93;63.07;97833.91;5094019;28;20648;-67
2021/05/18 13:41:09;;;;;;;1.53;0.90;;;18.10;61.50;;;17.90;65.07;97832.59;5084104;28;20655;-67
2021/05/18 13:43:38;;;;;;;1.20;0.70;;;18.00;65.00;;;17.91;65.63;97829.78;5088793;28;21076;-66
2021/05/18 13:46:08;;;;;;;5.23;1.43;;;18.00;65.50;;;17.81;62.93;97838.78;5089333;28;20674;-70
2021/05/18 13:48:36;;;;;;;2.40;1.00;;;17.90;62.60;;;17.68;65.46;97839.22;5090425;28;21161;-67
2021/05/18 13:51:05;;;;;;;2.13;1.00;;;17.80;64.60;;;17.65;66.80;97841.31;5082240;28;21257;-68
2021/05/18 13:53:48;;;;;;;2.93;1.10;;;17.80;66.80;;;17.50;64.46;97843.69;5085586;28;20632;-67
2021/05/18 13:56:22;;;;;;;3.27;1.00;;;17.60;64.50;;;17.34;66.52;97842.72;5087067;28;20633;-68
2021/05/18 13:58:52;;;;;;;2.50;1.00;;;17.50;66.40;;;17.17;67.61;97846.16;5092376;28;20689;-67
2021/05/18 14:01:22;;;;;;;1.93;1.07;;;17.40;67.50;;;17.10;70.65;97841.66;5091551;28;20989;-67
2021/05/18 14:03:50;;;;;;;5.50;0.97;;;17.30;71.10;;;17.01;70.17;97824.91;5092883;28;21465;-66
2021/05/18 14:06:19;;;;;;;1.90;1.13;;;17.20;70.90;;;16.81;70.28;97822.59;5085534;28;20642;-66
2021/05/18 14:08:47;;;;;;;4.27;1.20;;;16.90;72.10;;;16.65;72.20;97816.31;5083481;28;20731;-67
2021/05/18 14:11:18;;;;;;;4.17;1.40;;;16.70;73.00;;;16.58;73.21;97815.25;5087435;28;20692;-67
2021/05/18 14:13:48;;;;;;;2.60;1.30;;;16.70;74.40;;;16.53;73.50;97828.84;5088375;28;20681;-67
2021/05/18 14:16:18;;;;;;;3.10;1.10;;;16.60;75.10;;;16.55;74.59;97832.19;5090756;28;20742;-67
2021/05/18 14:18:50;;;;;;;2.50;1.40;;;16.70;77.70;;;16.57;78.04;97835.50;5087547;28;20654;-67
2021/05/18 14:21:20;;;;;;;2.87;1.53;;;16.70;82.80;;;16.57;78.66;97835.50;5086065;28;20634;-67
2021/05/18 14:23:56;;;;;;;2.60;1.30;;;16.70;85.20;;;16.54;80.87;97834.97;5087326;28;20727;-67
2021/05/18 14:26:29;;;;;;;2.37;1.30;;;16.70;85.70;;;16.51;82.03;97832.63;5081779;28;21014;-67
2021/05/18 14:28:57;;;;;;;2.90;1.27;;;16.60;87.30;;;16.45;81.75;97846.38;5082031;28;20627;-66
2021/05/18 14:31:26;;;;;;;5.73;1.43;;;16.60;87.70;;;16.37;80.66;97869.13;5084134;28;20639;-66
2021/05/18 14:33:56;;;;;;;3.73;1.37;;;16.50;86.70;;;16.18;78.78;97877.91;5089765;28;21067;-67
2021/05/18 14:36:24;;;;;;;3.37;1.30;;;16.40;83.80;;;16.00;77.34;97876.19;5079932;28;20977;-67
2021/05/18 14:39:04;;;;;;;2.30;1.20;;;16.20;81.20;;;15.85;76.26;97869.72;5081477;28;21048;-67
2021/05/18 14:44:25;;;;;;;2.50;1.07;;;16.00;81.50;;;15.72;75.69;97861.28;5042809;28;20670;-66